createdAt,value
2023-02-13T00:01:00.530Z,2.70
2023-02-13T00:03:28.932Z,2.43
2023-02-13T00:05:57.249Z,2.93
2023-02-13T00:08:25.572Z,3.10
2023-02-13T00:10:55.613Z,3.03
2023-02-13T00:13:24.029Z,2.73
2023-02-13T00:15:57.341Z,2.80
2023-02-13T00:18:25.640Z,3.07
2023-02-13T00:21:00.968Z,2.60
2023-02-13T00:23:29.357Z,2.23
2023-02-13T00:25:59.024Z,2.30
2023-02-13T00:28:27.473Z,2.30
2023-02-13T00:30:56.363Z,2.77
2023-02-13T00:33:24.985Z,2.40
2023-02-13T00:35:53.260Z,1.93
2023-02-13T00:38:21.556Z,2.83
2023-02-13T00:40:49.902Z,2.20
2023-02-13T00:43:20.424Z,2.60
2023-02-13T00:45:49.362Z,2.63
2023-02-13T00:48:17.623Z,2.27
2023-02-13T00:50:46.241Z,2.17
2023-02-13T00:53:14.558Z,1.97
2023-02-13T00:55:42.864Z,1.67
2023-02-13T00:58:11.138Z,1.97
2023-02-13T01:00:40.910Z,2.23
2023-02-13T01:03:09.184Z,2.20
2023-02-13T01:05:37.566Z,2.00
2023-02-13T01:08:05.987Z,2.43
2023-02-13T01:10:34.296Z,1.73
2023-02-13T01:13:02.568Z,1.87
2023-02-13T01:15:30.872Z,1.83
2023-02-13T01:18:00.975Z,2.17
2023-02-13T01:20:29.381Z,2.23
2023-02-13T01:22:57.805Z,1.67
2023-02-13T01:25:26.109Z,2.33
2023-02-13T01:27:54.359Z,1.73
2023-02-13T01:30:22.884Z,2.37
2023-02-13T01:32:51.181Z,2.00
2023-02-13T01:35:20.810Z,1.60
2023-02-13T01:37:49.149Z,2.23
2023-02-13T01:40:17.537Z,1.70
2023-02-13T01:42:45.824Z,1.77
2023-02-13T01:45:25.300Z,2.20
2023-02-13T01:47:54.908Z,1.70
2023-02-13T01:50:26.168Z,2.10
2023-02-13T01:52:54.697Z,2.13
2023-02-13T01:55:22.972Z,2.60
2023-02-13T01:57:52.432Z,2.10
2023-02-13T02:00:21.107Z,2.30
2023-02-13T02:02:51.335Z,1.73
2023-02-13T02:05:19.970Z,2.00
2023-02-13T02:07:49.632Z,1.93
2023-02-13T02:10:18.725Z,1.30
2023-02-13T02:12:48.686Z,2.10
2023-02-13T02:15:17.001Z,1.87
2023-02-13T02:17:45.419Z,1.77
2023-02-13T02:20:17.144Z,1.63
2023-02-13T02:22:54.074Z,2.33
2023-02-13T02:25:49.541Z,2.07
2023-02-13T02:28:32.041Z,1.80
2023-02-13T02:31:19.164Z,1.97
2023-02-13T02:33:51.738Z,1.87
2023-02-13T02:36:23.490Z,1.57
2023-02-13T02:39:06.842Z,1.83
2023-02-13T02:41:44.142Z,2.03
2023-02-13T02:44:16.855Z,1.87
2023-02-13T02:47:08.873Z,2.07
2023-02-13T02:49:56.669Z,1.60
2023-02-13T02:52:26.665Z,1.37
2023-02-13T02:55:12.073Z,2.10
2023-02-13T02:57:59.859Z,1.73
2023-02-13T03:00:46.058Z,1.80
2023-02-13T03:03:33.217Z,1.80
2023-02-13T03:06:11.765Z,1.53
2023-02-13T03:08:57.481Z,2.33
2023-02-13T03:11:43.471Z,2.00
2023-02-13T03:14:12.135Z,1.70
2023-02-13T03:16:58.141Z,1.87
2023-02-13T03:19:48.050Z,1.50
2023-02-13T03:22:23.612Z,1.77
2023-02-13T03:24:53.738Z,2.07
2023-02-13T03:27:45.247Z,1.70
2023-02-13T03:30:17.816Z,1.37
2023-02-13T03:32:47.468Z,1.73
2023-02-13T03:35:35.621Z,1.30
2023-02-13T03:38:08.404Z,1.97
2023-02-13T03:40:37.877Z,2.10
2023-02-13T03:43:08.208Z,1.50
2023-02-13T03:45:57.351Z,1.70
2023-02-13T03:48:40.899Z,1.50
2023-02-13T03:51:09.190Z,1.90
2023-02-13T03:53:38.847Z,1.43
2023-02-13T03:56:24.808Z,1.70
2023-02-13T03:59:11.134Z,1.70
2023-02-13T04:01:39.452Z,1.70
2023-02-13T04:04:09.979Z,1.30
2023-02-13T04:06:39.548Z,1.80
2023-02-13T04:09:09.176Z,1.37
2023-02-13T04:11:37.867Z,1.40
2023-02-13T04:14:07.798Z,1.57
2023-02-13T04:16:36.765Z,1.30
2023-02-13T04:19:05.057Z,1.57
2023-02-13T04:21:34.468Z,1.60
2023-02-13T04:24:02.751Z,1.30
2023-02-13T04:26:34.755Z,1.73
2023-02-13T04:29:03.113Z,1.60
2023-02-13T04:31:31.474Z,1.17
2023-02-13T04:33:59.813Z,1.37
2023-02-13T04:36:28.124Z,1.20
2023-02-13T04:38:56.415Z,1.70
2023-02-13T04:41:24.968Z,1.20
2023-02-13T04:43:54.622Z,1.63
2023-02-13T04:46:23.124Z,1.70
2023-02-13T04:48:51.539Z,1.17
2023-02-13T04:51:19.876Z,1.30
2023-02-13T04:53:48.156Z,1.53
2023-02-13T04:56:17.618Z,1.43
2023-02-13T04:58:47.250Z,1.33
2023-02-13T05:01:17.177Z,1.27
2023-02-13T05:03:45.522Z,1.50
2023-02-13T05:06:13.822Z,1.43
2023-02-13T05:08:42.154Z,1.17
2023-02-13T05:11:10.480Z,1.03
2023-02-13T05:13:38.771Z,1.20
2023-02-13T05:16:07.497Z,1.30
2023-02-13T05:18:37.174Z,1.50
2023-02-13T05:21:25.387Z,1.40
2023-02-13T05:23:53.670Z,1.60
2023-02-13T05:26:21.926Z,1.67
2023-02-13T05:29:07.929Z,1.40
2023-02-13T05:31:36.280Z,1.50
2023-02-13T05:34:05.955Z,1.40
2023-02-13T05:36:34.233Z,1.07
2023-02-13T05:39:02.505Z,1.90
2023-02-13T05:41:30.786Z,1.30
2023-02-13T05:43:59.091Z,1.03
2023-02-13T05:46:27.419Z,1.40
2023-02-13T05:48:55.693Z,1.70
2023-02-13T05:51:25.315Z,1.30
2023-02-13T05:53:53.687Z,1.30
2023-02-13T05:56:21.968Z,1.47
2023-02-13T05:58:52.906Z,1.20
2023-02-13T06:01:21.237Z,1.40
2023-02-13T06:03:49.652Z,1.20
2023-02-13T06:06:18.102Z,1.67
2023-02-13T06:08:47.760Z,1.33
2023-02-13T06:11:16.049Z,1.70
2023-02-13T06:13:44.304Z,1.47
2023-02-13T06:16:12.835Z,1.30
2023-02-13T06:18:41.405Z,1.63
2023-02-13T06:21:09.696Z,1.30
2023-02-13T06:23:37.962Z,1.73
2023-02-13T06:26:07.931Z,1.37
2023-02-13T06:28:36.272Z,1.30
2023-02-13T06:31:04.656Z,1.83
2023-02-13T06:33:33.065Z,1.13
2023-02-13T06:36:01.382Z,1.43
2023-02-13T06:38:29.712Z,1.27
2023-02-13T06:41:00.925Z,1.50
2023-02-13T06:43:30.606Z,1.23
2023-02-13T06:45:58.958Z,1.20
2023-02-13T06:48:27.379Z,1.70
2023-02-13T06:50:55.984Z,1.63
2023-02-13T06:53:25.009Z,1.37
2023-02-13T06:55:54.348Z,1.20
2023-02-13T06:58:22.663Z,1.30
2023-02-13T07:00:52.367Z,1.13
2023-02-13T07:03:20.903Z,1.20
2023-02-13T07:05:51.977Z,1.00
2023-02-13T07:08:20.299Z,1.17
2023-02-13T07:10:48.612Z,1.50
2023-02-13T07:13:16.881Z,1.53
2023-02-13T07:15:45.267Z,1.53
2023-02-13T07:18:14.904Z,1.40
2023-02-13T07:20:43.204Z,1.80
2023-02-13T07:23:11.919Z,1.43
2023-02-13T07:25:40.182Z,1.73
2023-02-13T07:28:08.574Z,1.10
2023-02-13T07:30:37.102Z,1.10
2023-02-13T07:33:05.643Z,2.17
2023-02-13T07:35:36.235Z,1.60
2023-02-13T07:38:04.691Z,1.43
2023-02-13T07:40:32.941Z,1.13
2023-02-13T07:43:03.100Z,1.23
2023-02-13T07:45:31.460Z,2.00
2023-02-13T07:47:59.819Z,1.90
2023-02-13T07:50:28.280Z,1.50
2023-02-13T07:52:58.053Z,1.37
2023-02-13T07:55:26.314Z,1.10
2023-02-13T07:57:54.608Z,1.60
2023-02-13T08:00:23.643Z,1.13
2023-02-13T08:02:51.892Z,1.30
2023-02-13T08:05:20.201Z,1.30
2023-02-13T08:07:48.622Z,1.37
2023-02-13T08:10:36.396Z,1.60
2023-02-13T08:13:04.909Z,1.10
2023-02-13T08:15:33.205Z,1.57
2023-02-13T08:18:01.508Z,1.17
2023-02-13T08:20:29.918Z,1.37
2023-02-13T08:23:04.094Z,0.90
2023-02-13T08:25:33.777Z,1.57
2023-02-13T08:28:02.140Z,1.37
2023-02-13T08:30:30.452Z,1.13
2023-02-13T08:32:59.003Z,1.43
2023-02-13T08:35:29.805Z,1.63
2023-02-13T08:37:58.181Z,1.73
2023-02-13T08:40:26.620Z,1.47
2023-02-13T08:42:57.776Z,1.73
2023-02-13T08:45:26.301Z,1.87
2023-02-13T08:47:57.439Z,1.03
2023-02-13T08:50:25.959Z,1.23
2023-02-13T08:52:54.424Z,1.20
2023-02-13T08:55:22.707Z,1.47
2023-02-13T08:57:50.965Z,1.70
2023-02-13T09:00:21.461Z,1.30
2023-02-13T09:02:49.860Z,1.63
2023-02-13T09:05:18.283Z,2.20
2023-02-13T09:07:46.670Z,1.70
2023-02-13T09:10:14.992Z,2.10
2023-02-13T09:12:43.300Z,1.57
2023-02-13T09:15:12.251Z,1.83
2023-02-13T09:17:41.917Z,1.90
2023-02-13T09:20:11.830Z,1.80
2023-02-13T09:22:40.315Z,1.93
2023-02-13T09:25:08.741Z,1.80
2023-02-13T09:27:39.004Z,1.83
2023-02-13T09:30:08.225Z,1.83
2023-02-13T09:32:37.597Z,1.77
2023-02-13T09:35:07.518Z,1.87
2023-02-13T09:37:35.960Z,2.00
2023-02-13T09:40:04.317Z,2.70
2023-02-13T09:42:33.726Z,2.07
2023-02-13T09:45:02.568Z,2.73
2023-02-13T09:47:31.749Z,2.10
2023-02-13T09:50:00.884Z,2.63
2023-02-13T09:52:30.941Z,3.50
2023-02-13T09:54:59.219Z,2.57
2023-02-13T09:57:29.446Z,2.70
2023-02-13T09:59:59.161Z,2.70
2023-02-13T10:02:31.957Z,2.30
2023-02-13T10:05:03.040Z,2.60
2023-02-13T10:07:34.051Z,3.23
2023-02-13T10:10:03.026Z,2.70
2023-02-13T10:12:33.661Z,2.40
2023-02-13T10:15:05.846Z,3.07
2023-02-13T10:17:34.653Z,2.70
2023-02-13T10:20:03.937Z,2.90
2023-02-13T10:22:35.327Z,3.57
2023-02-13T10:25:05.297Z,3.10
2023-02-13T10:27:34.624Z,2.90
2023-02-13T10:30:07.104Z,3.27
2023-02-13T10:32:38.564Z,3.03
2023-02-13T10:35:07.312Z,2.77
2023-02-13T10:37:36.944Z,3.30
2023-02-13T10:40:07.643Z,2.67
2023-02-13T10:42:38.435Z,2.80
2023-02-13T10:45:11.614Z,3.00
2023-02-13T10:47:44.208Z,2.50
2023-02-13T10:50:15.926Z,3.23
2023-02-13T10:52:49.237Z,2.53
2023-02-13T10:55:22.842Z,2.57
2023-02-13T10:58:01.460Z,2.77
2023-02-13T11:00:31.764Z,2.73
2023-02-13T11:03:00.327Z,3.47
2023-02-13T11:05:32.281Z,3.57
2023-02-13T11:08:03.167Z,2.60
2023-02-13T11:10:31.459Z,3.17
2023-02-13T11:13:00.204Z,2.87
2023-02-13T11:15:29.193Z,2.50
2023-02-13T11:17:58.713Z,2.67
2023-02-13T11:20:28.527Z,2.50
2023-02-13T11:22:57.138Z,2.70
2023-02-13T11:25:27.103Z,2.23
2023-02-13T11:27:56.672Z,2.10
2023-02-13T11:30:31.813Z,2.70
2023-02-13T11:33:00.775Z,2.23
2023-02-13T11:35:29.687Z,3.07
2023-02-13T11:38:13.740Z,2.83
2023-02-13T11:40:45.028Z,3.03
2023-02-13T11:43:16.741Z,2.77
2023-02-13T11:45:45.019Z,2.87
2023-02-13T11:48:19.153Z,2.83
2023-02-13T11:50:47.414Z,2.93
2023-02-13T11:53:20.001Z,3.07
2023-02-13T11:56:02.564Z,2.37
2023-02-13T11:58:32.148Z,2.60
2023-02-13T12:01:17.009Z,2.53
2023-02-13T12:03:45.482Z,2.30
2023-02-13T12:06:14.863Z,2.67
2023-02-13T12:08:43.614Z,2.13
2023-02-13T12:11:16.768Z,2.63
2023-02-13T12:13:45.059Z,2.80
2023-02-13T12:16:14.547Z,2.43
2023-02-13T12:18:43.722Z,2.13
2023-02-13T12:21:14.323Z,2.40
2023-02-13T12:23:44.207Z,2.80
2023-02-13T12:26:18.889Z,2.17
2023-02-13T12:28:51.581Z,2.37
2023-02-13T12:31:34.748Z,2.73
2023-02-13T12:34:33.377Z,2.43
2023-02-13T12:37:05.066Z,2.97
2023-02-13T12:39:33.964Z,2.80
2023-02-13T12:42:15.167Z,3.53
2023-02-13T12:44:50.662Z,2.80
2023-02-13T12:47:20.294Z,2.40
2023-02-13T12:49:55.671Z,2.57
2023-02-13T12:52:28.805Z,3.07
2023-02-13T12:55:00.845Z,3.03
2023-02-13T12:57:35.537Z,3.70
2023-02-13T13:00:24.876Z,3.47
2023-02-13T13:02:55.570Z,3.10
2023-02-13T13:05:30.092Z,4.03
2023-02-13T13:08:02.485Z,4.10
2023-02-13T13:10:34.960Z,3.53
2023-02-13T13:13:06.022Z,3.43
2023-02-13T13:15:35.193Z,3.57
2023-02-13T13:18:07.372Z,4.43
2023-02-13T13:20:46.037Z,3.83
2023-02-13T13:23:15.321Z,3.30
2023-02-13T13:25:45.912Z,3.83
2023-02-13T13:28:16.744Z,3.87
2023-02-13T13:30:45.153Z,3.13
2023-02-13T13:33:15.490Z,3.77
2023-02-13T13:35:43.878Z,2.87
2023-02-13T13:38:13.353Z,3.63
2023-02-13T13:40:42.925Z,3.23
2023-02-13T13:43:15.062Z,4.00
2023-02-13T13:45:46.981Z,3.27
2023-02-13T13:48:42.330Z,3.30
2023-02-13T13:51:10.782Z,3.73
2023-02-13T13:53:39.119Z,3.53
2023-02-13T13:56:09.311Z,3.30
2023-02-13T13:58:41.557Z,3.23
2023-02-13T14:01:33.712Z,2.90
2023-02-13T14:04:03.763Z,3.10
2023-02-13T14:06:46.936Z,4.47
2023-02-13T14:09:34.019Z,3.43
2023-02-13T14:12:05.216Z,3.30
2023-02-13T14:14:52.738Z,3.53
2023-02-13T14:17:39.456Z,4.20
2023-02-13T14:20:14.373Z,3.47
2023-02-13T14:22:42.631Z,3.47
2023-02-13T14:25:21.427Z,4.07
2023-02-13T14:27:53.779Z,3.83
2023-02-13T14:30:27.892Z,3.97
2023-02-13T14:32:56.232Z,3.80
2023-02-13T14:35:26.668Z,4.13
2023-02-13T14:37:57.841Z,3.77
2023-02-13T14:40:41.017Z,3.97
2023-02-13T14:43:18.115Z,3.70
2023-02-13T14:45:49.362Z,4.33
2023-02-13T14:48:17.956Z,4.20
2023-02-13T14:50:48.452Z,4.60
2023-02-13T14:53:18.628Z,4.07
2023-02-13T14:55:47.186Z,5.17
2023-02-13T14:58:17.212Z,5.10
2023-02-13T15:00:46.457Z,4.50
2023-02-13T15:03:18.059Z,6.27
2023-02-13T15:05:49.338Z,5.23
2023-02-13T15:08:18.139Z,5.87
2023-02-13T15:10:47.310Z,5.97
2023-02-13T15:13:15.910Z,5.60
2023-02-13T15:15:44.198Z,5.47
2023-02-13T15:18:13.541Z,4.93
2023-02-13T15:20:42.644Z,6.00
2023-02-13T15:23:16.093Z,7.20
2023-02-13T15:25:44.702Z,5.50
2023-02-13T15:28:17.980Z,5.03
2023-02-13T15:30:53.793Z,6.43
2023-02-13T15:33:22.498Z,5.13
2023-02-13T15:35:56.005Z,5.13
2023-02-13T15:38:27.184Z,4.60
2023-02-13T15:40:56.244Z,5.83
2023-02-13T15:43:24.966Z,5.30
2023-02-13T15:45:53.403Z,5.10
2023-02-13T15:48:21.836Z,5.60
2023-02-13T15:50:50.148Z,5.50
2023-02-13T15:53:18.505Z,4.77
2023-02-13T15:55:58.433Z,5.67
2023-02-13T15:58:27.696Z,4.13
2023-02-13T16:00:56.257Z,5.00
2023-02-13T16:03:24.801Z,5.40
2023-02-13T16:05:53.092Z,5.50
2023-02-13T16:08:27.927Z,4.97
2023-02-13T16:14:00.144Z,6.07
2023-02-13T16:16:28.508Z,4.83
2023-02-13T16:18:56.806Z,5.33
2023-02-13T16:21:25.460Z,5.93
2023-02-13T16:23:53.972Z,5.47
2023-02-13T16:26:22.248Z,5.73
2023-02-13T16:28:50.858Z,6.10
2023-02-13T16:31:20.571Z,5.63
2023-02-13T16:33:49.178Z,5.20
2023-02-13T16:36:21.290Z,5.97
2023-02-13T16:38:49.786Z,5.13
2023-02-13T16:41:34.317Z,5.63
2023-02-13T16:44:02.740Z,5.97
2023-02-13T16:46:33.052Z,5.00
2023-02-13T16:49:02.902Z,6.17
2023-02-13T16:51:35.604Z,4.93
2023-02-13T16:54:04.604Z,5.43
2023-02-13T16:56:38.782Z,5.47
2023-02-13T16:59:07.964Z,5.20
2023-02-13T17:01:38.273Z,4.97
2023-02-13T17:04:10.132Z,5.13
2023-02-13T17:06:38.591Z,6.17
2023-02-13T17:09:06.871Z,5.93
2023-02-13T17:11:35.495Z,6.37
2023-02-13T17:14:03.743Z,6.13
2023-02-13T17:16:32.072Z,6.77
2023-02-13T17:19:02.019Z,6.67
2023-02-13T17:21:30.309Z,5.93
2023-02-13T17:23:58.626Z,5.07
2023-02-13T17:26:27.277Z,6.20
2023-02-13T17:28:55.547Z,6.10
2023-02-13T17:31:23.966Z,6.47
2023-02-13T17:33:52.498Z,5.63
2023-02-13T17:36:22.197Z,6.33
2023-02-13T17:38:50.535Z,5.97
2023-02-13T17:41:19.098Z,6.87
2023-02-13T17:43:47.561Z,7.27
2023-02-13T17:46:17.004Z,6.83
2023-02-13T17:48:45.494Z,6.17
2023-02-13T17:51:14.451Z,6.70
2023-02-13T17:53:44.336Z,7.43
2023-02-13T17:56:12.928Z,6.53
2023-02-13T17:58:41.854Z,8.13
2023-02-13T18:01:11.463Z,6.43
2023-02-13T18:03:40.450Z,6.80
2023-02-13T18:06:08.884Z,7.27
2023-02-13T18:08:37.154Z,6.90
2023-02-13T18:11:08.249Z,7.03
2023-02-13T18:13:36.604Z,7.37
2023-02-13T18:16:09.633Z,6.83
2023-02-13T18:18:37.960Z,6.63
2023-02-13T18:21:06.476Z,8.57
2023-02-13T18:23:34.797Z,8.70
2023-02-13T18:26:10.777Z,6.70
2023-02-13T18:28:39.264Z,7.70
2023-02-13T18:31:07.625Z,7.50
2023-02-13T18:33:36.027Z,8.97
2023-02-13T18:36:04.810Z,9.17
2023-02-13T18:38:33.080Z,9.13
2023-02-13T18:41:01.423Z,8.93
2023-02-13T18:43:31.374Z,8.13
2023-02-13T18:45:59.684Z,10.17
2023-02-13T18:48:28.032Z,8.90
2023-02-13T18:50:56.799Z,9.03
2023-02-13T18:53:25.219Z,9.67
2023-02-13T18:56:00.970Z,8.17
2023-02-13T18:58:30.676Z,10.17
2023-02-13T19:00:59.246Z,9.70
2023-02-13T19:03:28.261Z,9.83
2023-02-13T19:05:57.270Z,10.17
2023-02-13T19:08:25.583Z,9.77
2023-02-13T19:10:54.039Z,9.80
2023-02-13T19:13:22.380Z,8.47
2023-02-13T19:15:52.118Z,10.17
2023-02-13T19:18:20.606Z,8.73
2023-02-13T19:20:49.226Z,8.93
2023-02-13T19:23:17.512Z,9.67
2023-02-13T19:25:46.013Z,9.90
2023-02-13T19:28:14.339Z,8.57
2023-02-13T19:30:42.626Z,8.70
2023-02-13T19:33:12.587Z,8.43
2023-02-13T19:35:40.887Z,8.33
2023-02-13T19:38:09.233Z,8.73
2023-02-13T19:40:37.529Z,9.53
2023-02-13T19:43:05.948Z,8.93
2023-02-13T19:45:34.292Z,8.23
2023-02-13T19:48:02.741Z,8.47
2023-02-13T19:50:32.383Z,8.53
2023-02-13T19:53:00.669Z,7.63
2023-02-13T19:55:29.117Z,8.03
2023-02-13T19:57:57.413Z,8.40
2023-02-13T20:00:25.784Z,8.60
2023-02-13T20:02:55.395Z,8.33
2023-02-13T20:05:23.755Z,8.53
2023-02-13T20:07:53.435Z,8.40
2023-02-13T20:10:21.999Z,7.27
2023-02-13T20:12:53.716Z,7.20
2023-02-13T20:15:22.339Z,9.13
2023-02-13T20:17:50.661Z,8.10
2023-02-13T20:20:19.022Z,8.33
2023-02-13T20:22:48.698Z,8.43
2023-02-13T20:25:18.759Z,8.10
2023-02-13T20:27:47.076Z,8.73
2023-02-13T20:30:16.167Z,7.83
2023-02-13T20:32:44.474Z,7.97
2023-02-13T20:35:12.792Z,7.23
2023-02-13T20:37:42.252Z,8.30
2023-02-13T20:40:11.105Z,7.93
2023-02-13T20:42:40.769Z,7.17
2023-02-13T20:45:09.724Z,6.47
2023-02-13T20:47:38.029Z,7.63
2023-02-13T20:50:06.521Z,6.97
2023-02-13T20:52:35.159Z,7.03
2023-02-13T20:55:03.617Z,6.57
2023-02-13T20:57:34.325Z,6.53
2023-02-13T21:00:04.794Z,6.63
2023-02-13T21:02:33.145Z,6.50
2023-02-13T21:05:01.458Z,6.97
2023-02-13T21:07:31.645Z,6.97
2023-02-13T21:10:00.103Z,6.10
2023-02-13T21:12:28.440Z,5.80
2023-02-13T21:14:57.084Z,5.30
2023-02-13T21:17:26.740Z,6.67
2023-02-13T21:19:55.226Z,6.77
2023-02-13T21:22:23.526Z,5.67
2023-02-13T21:24:52.163Z,6.00
2023-02-13T21:27:20.551Z,6.63
2023-02-13T21:29:49.012Z,5.73
2023-02-13T21:32:17.494Z,6.00
2023-02-13T21:34:47.242Z,5.63
2023-02-13T21:37:15.862Z,5.23
2023-02-13T21:39:44.186Z,5.53
2023-02-13T21:42:12.603Z,4.73
2023-02-13T21:44:41.044Z,6.47
2023-02-13T21:47:09.375Z,5.43
2023-02-13T21:49:37.761Z,5.03
2023-02-13T21:52:07.852Z,4.27
2023-02-13T21:54:36.102Z,5.60
2023-02-13T21:57:04.442Z,6.47
2023-02-13T21:59:32.879Z,4.83
2023-02-13T22:02:02.711Z,5.57
2023-02-13T22:04:31.163Z,6.30
2023-02-13T22:06:59.535Z,6.13
2023-02-13T22:09:29.238Z,5.33
2023-02-13T22:11:57.577Z,4.93
2023-02-13T22:14:25.977Z,4.30
2023-02-13T22:16:54.275Z,4.43
2023-02-13T22:19:22.607Z,4.80
2023-02-13T22:21:51.061Z,5.30
2023-02-13T22:24:19.376Z,4.67
2023-02-13T22:26:49.043Z,4.60
2023-02-13T22:29:18.675Z,4.30
2023-02-13T22:31:47.063Z,3.43
2023-02-13T22:34:15.612Z,4.03
2023-02-13T22:36:44.185Z,3.73
2023-02-13T22:39:12.504Z,4.73
2023-02-13T22:41:41.113Z,3.77
2023-02-13T22:44:11.156Z,4.37
2023-02-13T22:46:39.632Z,4.60
2023-02-13T22:49:07.981Z,4.63
2023-02-13T22:51:36.782Z,4.70
2023-02-13T22:54:05.303Z,3.87
2023-02-13T22:56:33.622Z,4.07
2023-02-13T22:59:02.015Z,5.10
2023-02-13T23:01:31.673Z,4.87
2023-02-13T23:04:00.056Z,4.03
2023-02-13T23:06:28.667Z,3.90
2023-02-13T23:08:57.071Z,3.73
2023-02-13T23:11:43.545Z,3.60
2023-02-13T23:14:11.996Z,4.10
2023-02-13T23:16:59.300Z,4.03
2023-02-13T23:19:27.851Z,3.33
2023-02-13T23:21:56.152Z,3.33
2023-02-13T23:24:24.557Z,4.17
2023-02-13T23:26:52.837Z,3.40
2023-02-13T23:29:21.380Z,3.07
2023-02-13T23:31:51.134Z,3.37
2023-02-13T23:34:19.496Z,3.80
2023-02-13T23:36:47.825Z,3.10
2023-02-13T23:39:16.422Z,4.57
2023-02-13T23:41:44.732Z,3.70
2023-02-13T23:44:13.031Z,3.33
2023-02-13T23:46:41.354Z,2.87
2023-02-13T23:49:10.999Z,3.67
2023-02-13T23:51:39.279Z,3.60
2023-02-13T23:54:07.573Z,2.37
2023-02-13T23:56:35.883Z,3.70
2023-02-13T23:59:04.180Z,3.00
